createdAt,value
2023-03-19T00:00:56.063Z,6.80
2023-03-19T00:03:23.776Z,6.80
2023-03-19T00:05:54.693Z,6.80
2023-03-19T00:08:22.916Z,6.80
2023-03-19T00:10:51.649Z,6.80
2023-03-19T00:13:20.587Z,6.60
2023-03-19T00:15:49.188Z,6.60
2023-03-19T00:18:17.755Z,6.60
2023-03-19T00:20:46.055Z,6.60
2023-03-19T00:25:42.392Z,6.50
2023-03-19T00:28:10.580Z,6.50
2023-03-19T00:30:38.251Z,6.40
2023-03-19T00:33:06.963Z,6.40
2023-03-19T00:35:35.447Z,6.30
2023-03-19T00:38:03.861Z,6.30
2023-03-19T00:40:34.163Z,6.20
2023-03-19T00:43:01.882Z,6.20
2023-03-19T00:45:31.489Z,6.10
2023-03-19T00:47:59.711Z,6.00
2023-03-19T00:50:27.629Z,6.00
2023-03-19T00:52:59.878Z,6.00
2023-03-19T00:55:27.706Z,6.00
2023-03-19T00:57:56.201Z,6.00
2023-03-19T01:00:24.710Z,5.90
2023-03-19T01:02:52.623Z,5.90
2023-03-19T01:05:21.832Z,5.90
2023-03-19T01:07:49.383Z,5.80
2023-03-19T01:10:23.137Z,5.80
2023-03-19T01:12:51.346Z,5.80
2023-03-19T01:15:19.653Z,5.90
2023-03-19T01:17:47.349Z,5.80
2023-03-19T01:22:46.796Z,5.80
2023-03-19T01:25:15.156Z,5.80
2023-03-19T01:27:52.478Z,5.90
2023-03-19T01:30:21.773Z,5.80
2023-03-19T01:33:08.397Z,5.80
2023-03-19T01:35:59.668Z,5.90
2023-03-19T01:38:32.864Z,5.90
2023-03-19T01:41:04.847Z,5.90
2023-03-19T01:43:33.458Z,6.00
2023-03-19T01:46:28.681Z,7.10
2023-03-19T01:49:15.235Z,6.00
2023-03-19T01:51:48.032Z,6.00
2023-03-19T01:54:45.590Z,6.00
2023-03-19T01:57:36.602Z,6.00
2023-03-19T02:00:35.260Z,6.00
2023-03-19T02:03:06.866Z,6.10
2023-03-19T02:05:56.915Z,6.00
2023-03-19T02:08:25.897Z,6.10
2023-03-19T02:10:56.323Z,6.20
2023-03-19T02:13:24.023Z,6.20
2023-03-19T02:15:52.877Z,6.30
2023-03-19T02:18:21.405Z,6.20
2023-03-19T02:21:11.083Z,6.30
2023-03-19T02:23:56.168Z,6.40
2023-03-19T02:26:43.492Z,6.40
2023-03-19T02:29:11.496Z,6.40
2023-03-19T02:31:39.625Z,6.40
2023-03-19T02:34:20.566Z,6.50
2023-03-19T02:36:52.332Z,6.40
2023-03-19T02:39:44.486Z,6.40
2023-03-19T02:42:13.783Z,6.40
2023-03-19T02:44:42.283Z,6.30
2023-03-19T02:47:10.577Z,6.20
2023-03-19T02:49:38.145Z,6.30
2023-03-19T02:52:06.480Z,6.30
2023-03-19T02:54:34.334Z,6.30
2023-03-19T02:59:30.741Z,6.30
2023-03-19T03:01:59.915Z,6.40
2023-03-19T03:04:28.489Z,6.40
2023-03-19T03:06:56.753Z,6.30
2023-03-19T03:11:54.032Z,6.30
2023-03-19T03:14:21.844Z,6.30
2023-03-19T03:16:49.900Z,6.40
2023-03-19T03:19:17.792Z,6.40
2023-03-19T03:24:13.864Z,6.50
2023-03-19T03:26:42.716Z,6.50
2023-03-19T03:29:11.552Z,6.50
2023-03-19T03:31:48.530Z,6.40
2023-03-19T03:34:16.391Z,6.40
2023-03-19T03:36:46.629Z,6.50
2023-03-19T03:39:14.717Z,6.40
2023-03-19T03:41:42.965Z,6.30
2023-03-19T03:44:10.737Z,6.20
2023-03-19T03:46:40.896Z,6.20
2023-03-19T03:49:11.292Z,6.20
2023-03-19T03:51:39.226Z,6.20
2023-03-19T03:54:07.495Z,6.20
2023-03-19T03:56:36.268Z,6.10
2023-03-19T04:01:32.695Z,6.20
2023-03-19T04:04:01.451Z,6.20
2023-03-19T04:06:29.229Z,6.10
2023-03-19T04:09:17.711Z,6.00
2023-03-19T04:14:13.711Z,6.00
2023-03-19T04:16:42.505Z,6.00
2023-03-19T04:19:10.980Z,6.00
2023-03-19T04:21:40.030Z,5.90
2023-03-19T04:24:08.112Z,6.00
2023-03-19T04:26:36.319Z,5.90
2023-03-19T04:29:04.389Z,5.90
2023-03-19T04:31:32.457Z,5.80
2023-03-19T04:34:00.407Z,5.80
2023-03-19T04:36:28.918Z,5.70
2023-03-19T04:38:56.990Z,5.70
2023-03-19T04:41:24.950Z,5.80
2023-03-19T04:44:11.971Z,5.70
2023-03-19T04:46:42.021Z,5.70
2023-03-19T04:49:09.656Z,5.70
2023-03-19T04:51:37.843Z,5.80
2023-03-19T04:54:05.952Z,5.70
2023-03-19T04:56:33.914Z,5.80
2023-03-19T04:59:03.071Z,5.90
2023-03-19T05:01:31.536Z,5.90
2023-03-19T05:04:06.274Z,5.90
2023-03-19T05:06:38.589Z,5.80
2023-03-19T05:09:07.908Z,8.90
2023-03-19T05:11:36.556Z,5.80
2023-03-19T05:14:07.281Z,5.80
2023-03-19T05:17:07.829Z,5.80
2023-03-19T05:19:48.798Z,5.80
2023-03-19T05:24:46.577Z,5.90
2023-03-19T05:27:16.029Z,5.90
2023-03-19T05:32:34.033Z,5.80
2023-03-19T05:35:05.690Z,5.80
2023-03-19T05:37:35.153Z,5.80
2023-03-19T05:40:03.080Z,5.90
2023-03-19T05:42:31.936Z,5.90
2023-03-19T05:45:00.638Z,5.90
2023-03-19T05:47:39.370Z,5.90
2023-03-19T05:50:08.481Z,5.80
2023-03-19T05:52:37.844Z,5.90
2023-03-19T05:55:07.165Z,5.90
2023-03-19T05:57:34.868Z,5.90
2023-03-19T06:00:11.010Z,5.90
2023-03-19T06:02:39.691Z,5.80
2023-03-19T06:05:36.500Z,5.80
2023-03-19T06:08:21.837Z,5.80
2023-03-19T06:11:11.248Z,5.80
2023-03-19T06:13:40.451Z,5.90
2023-03-19T06:16:24.049Z,5.80
2023-03-19T06:18:57.754Z,5.80
2023-03-19T06:21:29.733Z,5.80
2023-03-19T06:24:08.683Z,5.80
2023-03-19T06:26:37.496Z,5.90
2023-03-19T06:29:12.634Z,5.90
2023-03-19T06:31:42.474Z,5.90
2023-03-19T06:34:45.859Z,5.90
2023-03-19T06:37:14.997Z,5.90
2023-03-19T06:39:45.072Z,5.90
2023-03-19T06:42:13.828Z,5.80
2023-03-19T06:44:45.606Z,5.90
2023-03-19T06:47:14.593Z,2.50
2023-03-19T06:49:43.129Z,5.90
2023-03-19T06:52:11.027Z,5.90
2023-03-19T06:57:06.921Z,6.00
2023-03-19T06:59:34.593Z,6.10
2023-03-19T07:02:04.260Z,6.10
2023-03-19T07:04:32.504Z,6.10
2023-03-19T07:07:02.861Z,6.20
2023-03-19T07:09:32.156Z,6.20
2023-03-19T07:14:28.146Z,6.20
2023-03-19T07:16:57.344Z,6.30
2023-03-19T07:19:24.877Z,6.30
2023-03-19T07:21:52.414Z,6.30
2023-03-19T07:24:20.377Z,6.30
2023-03-19T07:29:15.722Z,6.40
2023-03-19T07:31:46.084Z,6.50
2023-03-19T07:34:14.263Z,9.50
2023-03-19T07:36:42.083Z,6.60
2023-03-19T07:39:11.960Z,6.70
2023-03-19T07:41:41.597Z,6.80
2023-03-19T07:44:11.926Z,6.80
2023-03-19T07:46:39.780Z,6.90
2023-03-19T07:49:07.859Z,7.00
2023-03-19T07:51:35.638Z,7.00
2023-03-19T07:54:05.320Z,7.10
2023-03-19T07:56:33.182Z,7.30
2023-03-19T07:59:00.986Z,7.30
2023-03-19T08:01:29.829Z,7.30
2023-03-19T08:03:57.631Z,7.40
2023-03-19T08:06:25.305Z,7.30
2023-03-19T08:08:53.955Z,7.40
2023-03-19T08:11:23.875Z,7.40
2023-03-19T08:13:52.902Z,7.40
2023-03-19T08:16:21.530Z,7.40
2023-03-19T08:18:51.356Z,7.50
2023-03-19T08:23:53.574Z,7.50
2023-03-19T08:26:22.769Z,7.50
2023-03-19T08:28:50.753Z,7.50
2023-03-19T08:31:19.318Z,7.50
2023-03-19T08:33:47.705Z,7.60
2023-03-19T08:36:15.981Z,7.50
2023-03-19T08:38:43.935Z,7.50
2023-03-19T08:41:11.549Z,7.50
2023-03-19T08:43:39.587Z,7.50
2023-03-19T08:46:07.258Z,7.60
2023-03-19T08:48:35.106Z,7.60
2023-03-19T08:51:03.903Z,7.60
2023-03-19T08:53:32.697Z,7.60
2023-03-19T08:56:03.040Z,7.70
2023-03-19T08:58:33.057Z,7.70
2023-03-19T09:01:11.324Z,6.40
2023-03-19T09:03:39.855Z,7.70
2023-03-19T09:06:12.762Z,7.80
2023-03-19T09:08:42.554Z,7.80
2023-03-19T09:11:11.557Z,7.90
2023-03-19T09:16:08.956Z,7.90
2023-03-19T09:18:38.079Z,7.90
2023-03-19T09:21:06.075Z,8.00
2023-03-19T09:26:02.585Z,8.20
2023-03-19T09:28:30.438Z,8.20
2023-03-19T09:30:58.135Z,8.20
2023-03-19T09:33:25.824Z,8.20
2023-03-19T09:35:54.406Z,8.20
2023-03-19T09:38:23.094Z,8.10
2023-03-19T09:41:14.803Z,8.30
2023-03-19T09:44:05.408Z,8.30
2023-03-19T09:46:50.385Z,8.30
2023-03-19T09:49:23.373Z,8.40
2023-03-19T09:52:00.156Z,8.40
2023-03-19T09:54:37.360Z,8.50
2023-03-19T09:57:05.498Z,8.50
2023-03-19T09:59:33.134Z,8.50
2023-03-19T10:02:22.863Z,8.50
2023-03-19T10:05:27.111Z,10.40
2023-03-19T10:08:12.763Z,8.50
2023-03-19T10:11:09.583Z,8.50
2023-03-19T10:13:58.779Z,8.50
2023-03-19T10:16:28.605Z,8.50
2023-03-19T10:19:00.501Z,8.30
2023-03-19T10:21:39.668Z,8.40
2023-03-19T10:24:21.799Z,8.40
2023-03-19T10:26:56.196Z,8.40
2023-03-19T10:29:24.864Z,8.40
2023-03-19T10:31:53.952Z,8.40
2023-03-19T10:34:34.126Z,8.50
2023-03-19T10:37:13.664Z,8.50
2023-03-19T10:39:44.862Z,8.60
2023-03-19T10:42:18.804Z,8.60
2023-03-19T10:44:49.089Z,8.60
2023-03-19T10:47:19.230Z,8.40
2023-03-19T10:49:47.077Z,8.40
2023-03-19T10:52:39.756Z,8.40
2023-03-19T10:55:26.063Z,8.60
2023-03-19T10:58:03.374Z,8.30
2023-03-19T11:00:34.003Z,8.30
2023-03-19T11:03:04.938Z,8.50
2023-03-19T11:05:35.143Z,8.50
2023-03-19T11:08:34.599Z,8.60
2023-03-19T11:11:03.688Z,8.80
2023-03-19T11:13:34.315Z,8.80
2023-03-19T11:16:02.096Z,8.90
2023-03-19T11:18:37.122Z,8.90
2023-03-19T11:21:30.688Z,8.90
2023-03-19T11:24:03.752Z,9.00
2023-03-19T11:26:31.399Z,9.00
2023-03-19T11:29:04.901Z,9.10
2023-03-19T11:32:01.989Z,9.30
2023-03-19T11:34:41.660Z,9.30
2023-03-19T11:37:28.402Z,9.30
2023-03-19T11:40:03.594Z,9.40
2023-03-19T11:42:45.886Z,9.60
2023-03-19T11:45:34.024Z,9.70
2023-03-19T11:48:26.000Z,9.90
2023-03-19T11:51:04.172Z,9.90
2023-03-19T11:53:38.460Z,9.90
2023-03-19T11:56:33.606Z,10.00
2023-03-19T11:59:01.220Z,10.00
2023-03-19T12:01:54.291Z,10.10
2023-03-19T12:04:43.163Z,10.40
2023-03-19T12:07:20.038Z,10.50
2023-03-19T12:10:03.204Z,10.50
2023-03-19T12:12:48.828Z,10.50
2023-03-19T12:15:46.490Z,10.50
2023-03-19T12:18:52.470Z,10.60
2023-03-19T12:21:40.566Z,10.50
2023-03-19T12:24:18.749Z,10.50
2023-03-19T12:27:13.674Z,10.60
2023-03-19T12:29:50.349Z,10.40
2023-03-19T12:32:33.252Z,10.30
2023-03-19T12:35:35.400Z,10.30
2023-03-19T12:38:24.881Z,10.30
2023-03-19T12:41:02.483Z,10.30
2023-03-19T12:43:49.896Z,10.40
2023-03-19T12:46:25.900Z,10.40
2023-03-19T12:49:09.967Z,10.40
2023-03-19T12:51:42.787Z,10.60
2023-03-19T12:54:40.378Z,10.80
2023-03-19T12:57:12.794Z,10.90
2023-03-19T13:00:03.028Z,10.90
2023-03-19T13:02:37.268Z,11.10
2023-03-19T13:05:48.244Z,11.00
2023-03-19T13:08:34.229Z,11.00
2023-03-19T13:11:07.029Z,11.00
2023-03-19T13:14:08.019Z,11.00
2023-03-19T13:16:54.878Z,11.10
2023-03-19T13:19:35.642Z,11.10
2023-03-19T13:22:11.696Z,11.00
2023-03-19T13:24:41.518Z,11.10
2023-03-19T13:27:22.779Z,11.10
2023-03-19T13:30:22.492Z,11.10
2023-03-19T13:33:03.658Z,11.10
2023-03-19T13:35:41.191Z,11.20
2023-03-19T13:38:11.715Z,11.20
2023-03-19T13:43:27.907Z,11.20
2023-03-19T13:46:51.750Z,11.20
2023-03-19T13:49:22.470Z,11.20
2023-03-19T13:51:50.664Z,11.30
2023-03-19T13:54:34.213Z,11.40
2023-03-19T13:57:02.418Z,11.40
2023-03-19T13:59:31.185Z,11.40
2023-03-19T14:02:00.686Z,11.70
2023-03-19T14:04:31.301Z,11.70
2023-03-19T14:07:12.507Z,11.80
2023-03-19T14:09:43.447Z,11.90
2023-03-19T14:12:20.901Z,11.80
2023-03-19T14:14:56.184Z,11.90
2023-03-19T14:17:37.614Z,12.10
2023-03-19T14:20:12.760Z,12.60
2023-03-19T14:22:58.285Z,12.60
2023-03-19T14:25:29.213Z,12.60
2023-03-19T14:28:02.313Z,12.60
2023-03-19T14:30:50.461Z,12.50
2023-03-19T14:33:25.548Z,12.80
2023-03-19T14:35:53.842Z,12.80
2023-03-19T14:38:52.199Z,13.60
2023-03-19T14:41:22.798Z,13.80
2023-03-19T14:44:36.420Z,13.90
2023-03-19T14:47:19.068Z,14.00
2023-03-19T14:49:52.907Z,14.00
2023-03-19T14:52:36.654Z,13.80
2023-03-19T14:55:12.826Z,13.70
2023-03-19T14:57:40.452Z,13.70
2023-03-19T15:00:15.517Z,13.70
2023-03-19T15:03:01.506Z,13.70
2023-03-19T15:05:37.108Z,13.40
2023-03-19T15:08:11.782Z,13.20
2023-03-19T15:11:05.575Z,13.20
2023-03-19T15:13:48.287Z,12.70
2023-03-19T15:16:44.609Z,12.60
2023-03-19T15:19:13.036Z,12.60
2023-03-19T15:21:40.852Z,13.40
2023-03-19T15:24:16.119Z,12.70
2023-03-19T15:26:44.763Z,12.60
2023-03-19T15:29:13.589Z,12.50
2023-03-19T15:31:57.514Z,12.40
2023-03-19T15:34:31.552Z,12.20
2023-03-19T15:37:10.646Z,12.30
2023-03-19T15:39:45.938Z,12.30
2023-03-19T15:42:16.314Z,12.20
2023-03-19T15:44:49.676Z,12.10
2023-03-19T15:47:21.983Z,12.00
2023-03-19T15:49:58.597Z,12.00
2023-03-19T15:52:32.259Z,11.70
2023-03-19T15:55:02.289Z,11.60
2023-03-19T16:00:01.321Z,11.50
2023-03-19T16:02:31.520Z,11.30
2023-03-19T16:05:22.525Z,11.30
2023-03-19T16:07:58.391Z,11.30
2023-03-19T16:10:28.958Z,11.30
2023-03-19T16:12:57.010Z,11.30
2023-03-19T16:15:43.815Z,11.30
2023-03-19T16:18:18.047Z,11.30
2023-03-19T16:21:23.246Z,11.30
2023-03-19T16:24:46.138Z,11.30
2023-03-19T16:27:19.862Z,11.20
2023-03-19T16:29:55.793Z,11.20
2023-03-19T16:32:28.478Z,11.10
2023-03-19T16:35:19.822Z,11.10
2023-03-19T16:37:49.066Z,11.00
2023-03-19T16:40:23.640Z,11.10
2023-03-19T16:42:52.929Z,11.00
2023-03-19T16:45:32.221Z,11.00
2023-03-19T16:48:05.039Z,11.00
2023-03-19T16:50:34.346Z,11.00
2023-03-19T16:53:04.685Z,11.00
2023-03-19T16:55:36.425Z,10.90
2023-03-19T16:58:08.583Z,10.90
2023-03-19T17:00:36.173Z,10.80
2023-03-19T17:03:03.922Z,10.80
2023-03-19T17:05:31.529Z,10.80
2023-03-19T17:07:59.176Z,10.80
2023-03-19T17:10:28.361Z,10.70
2023-03-19T17:12:57.114Z,10.60
2023-03-19T17:15:28.694Z,10.40
2023-03-19T17:17:57.288Z,10.20
2023-03-19T17:20:32.399Z,10.20
2023-03-19T17:23:00.656Z,9.90
2023-03-19T17:25:28.404Z,9.80
2023-03-19T17:27:55.945Z,9.70
2023-03-19T17:30:23.509Z,9.70
2023-03-19T17:35:21.665Z,9.50
2023-03-19T17:37:50.446Z,9.50
2023-03-19T17:40:23.955Z,9.40
2023-03-19T17:42:51.794Z,9.40
2023-03-19T17:45:23.272Z,9.40
2023-03-19T17:47:53.456Z,9.30
2023-03-19T17:50:24.831Z,9.30
2023-03-19T17:55:26.127Z,9.30
2023-03-19T17:57:54.070Z,9.30
2023-03-19T18:00:23.994Z,9.20
2023-03-19T18:02:54.684Z,9.20
2023-03-19T18:05:25.005Z,9.10
2023-03-19T18:07:56.407Z,9.10
2023-03-19T18:10:30.469Z,8.90
2023-03-19T18:13:00.096Z,8.90
2023-03-19T18:15:30.281Z,8.80
2023-03-19T18:18:00.361Z,8.70
2023-03-19T18:20:33.838Z,8.70
2023-03-19T18:23:01.725Z,8.60
2023-03-19T18:25:31.831Z,7.60
2023-03-19T18:27:59.480Z,8.50
2023-03-19T18:30:31.872Z,8.40
2023-03-19T18:33:02.772Z,8.40
2023-03-19T18:35:33.526Z,8.40
2023-03-19T18:40:34.176Z,8.40
2023-03-19T18:43:01.964Z,8.40
2023-03-19T18:45:30.947Z,8.30
2023-03-19T18:47:59.849Z,8.30
2023-03-19T18:50:30.205Z,8.30
2023-03-19T18:52:57.872Z,8.30
2023-03-19T18:55:30.201Z,8.30
2023-03-19T18:58:00.970Z,8.30
2023-03-19T19:00:31.854Z,8.30
2023-03-19T19:03:00.638Z,8.30
2023-03-19T19:05:32.290Z,8.30
2023-03-19T19:08:03.696Z,8.70
2023-03-19T19:10:37.476Z,8.30
2023-03-19T19:13:11.999Z,8.20
2023-03-19T19:15:39.622Z,8.20
2023-03-19T19:18:25.120Z,8.20
2023-03-19T19:20:54.036Z,8.20
2023-03-19T19:23:22.495Z,8.10
2023-03-19T19:25:55.407Z,8.10
2023-03-19T19:28:30.782Z,8.10
2023-03-19T19:30:59.890Z,9.60
2023-03-19T19:33:35.282Z,8.10
2023-03-19T19:36:04.500Z,8.10
2023-03-19T19:38:32.235Z,8.10
2023-03-19T19:41:00.534Z,8.10
2023-03-19T19:43:31.447Z,8.00
2023-03-19T19:45:59.954Z,8.10
2023-03-19T19:48:30.931Z,8.00
2023-03-19T19:50:59.712Z,7.90
2023-03-19T19:53:31.220Z,8.00
2023-03-19T19:55:58.837Z,8.00
2023-03-19T19:58:32.262Z,8.00
2023-03-19T20:01:04.445Z,8.00
2023-03-19T20:03:35.257Z,8.00
2023-03-19T20:06:06.221Z,8.00
2023-03-19T20:08:36.251Z,8.00
2023-03-19T20:11:26.893Z,8.00
2023-03-19T20:13:56.034Z,7.80
2023-03-19T20:16:26.572Z,7.70
2023-03-19T20:18:58.233Z,7.60
2023-03-19T20:21:26.302Z,7.60
2023-03-19T20:23:55.705Z,7.60
2023-03-19T20:26:30.265Z,7.60
2023-03-19T20:29:00.382Z,7.60
2023-03-19T20:31:32.315Z,7.60
2023-03-19T20:34:00.008Z,7.60
2023-03-19T20:36:29.018Z,7.60
2023-03-19T20:38:58.392Z,7.60
2023-03-19T20:41:29.345Z,7.60
2023-03-19T20:43:58.221Z,7.60
2023-03-19T20:46:26.009Z,7.60
2023-03-19T20:51:26.405Z,7.60
2023-03-19T20:53:54.471Z,7.70
2023-03-19T20:56:24.661Z,7.60
2023-03-19T20:58:55.659Z,7.60
2023-03-19T21:03:55.717Z,7.70
2023-03-19T21:06:25.343Z,7.70
2023-03-19T21:08:57.950Z,7.70
2023-03-19T21:11:39.713Z,7.70
2023-03-19T21:14:13.786Z,7.70
2023-03-19T21:16:41.524Z,7.70
2023-03-19T21:19:09.352Z,7.80
2023-03-19T21:21:39.055Z,7.70
2023-03-19T21:24:10.130Z,7.70
2023-03-19T21:26:39.855Z,7.60
2023-03-19T21:29:35.692Z,7.60
2023-03-19T21:32:04.594Z,8.10
2023-03-19T21:34:32.351Z,7.60
2023-03-19T21:36:59.886Z,7.50
2023-03-19T21:39:27.794Z,7.50
2023-03-19T21:41:57.421Z,7.50
2023-03-19T21:44:25.083Z,7.50
2023-03-19T21:46:53.090Z,7.40
2023-03-19T21:49:20.668Z,7.50
2023-03-19T21:51:48.216Z,7.40
2023-03-19T21:54:15.912Z,7.40
2023-03-19T21:56:45.598Z,7.40
2023-03-19T21:59:29.705Z,7.20
2023-03-19T22:01:58.334Z,7.40
2023-03-19T22:04:25.944Z,7.40
2023-03-19T22:06:53.748Z,7.40
2023-03-19T22:09:21.444Z,7.40
2023-03-19T22:11:49.501Z,7.40
2023-03-19T22:14:24.626Z,7.50
2023-03-19T22:16:54.836Z,7.40
2023-03-19T22:19:23.867Z,7.40
2023-03-19T22:21:51.644Z,7.40
2023-03-19T22:24:19.252Z,7.40
2023-03-19T22:26:49.678Z,7.40
2023-03-19T22:29:25.684Z,7.40
2023-03-19T22:31:56.378Z,7.30
2023-03-19T22:34:27.968Z,7.30
2023-03-19T22:36:55.745Z,7.30
2023-03-19T22:39:23.256Z,7.30
2023-03-19T22:41:50.913Z,7.30
2023-03-19T22:44:28.733Z,7.20
2023-03-19T22:46:58.387Z,7.20
2023-03-19T22:49:28.051Z,7.20
2023-03-19T22:51:56.557Z,7.20
2023-03-19T22:54:24.241Z,7.20
2023-03-19T22:56:51.764Z,7.20
2023-03-19T22:59:20.256Z,7.10
2023-03-19T23:01:48.339Z,7.10
2023-03-19T23:04:23.188Z,7.10
2023-03-19T23:06:52.241Z,7.00
2023-03-19T23:09:38.174Z,7.00
2023-03-19T23:14:36.881Z,6.90
2023-03-19T23:17:17.682Z,6.90
2023-03-19T23:19:45.421Z,6.90
2023-03-19T23:22:17.044Z,6.90
2023-03-19T23:27:25.165Z,6.90
2023-03-19T23:29:53.331Z,6.80
2023-03-19T23:32:20.855Z,6.80
2023-03-19T23:35:00.279Z,6.80
2023-03-19T23:37:29.123Z,6.80
2023-03-19T23:39:57.853Z,6.80
2023-03-19T23:42:28.948Z,6.70
2023-03-19T23:44:59.912Z,6.80
2023-03-19T23:47:29.552Z,6.70
2023-03-19T23:49:57.631Z,6.60
2023-03-19T23:52:25.390Z,6.70
2023-03-19T23:54:52.953Z,6.70
2023-03-19T23:57:23.631Z,6.70
2023-03-19T23:59:53.863Z,6.70
